createdAt,value
2023-03-28T00:01:09.956Z,1.27
2023-03-28T00:03:40.528Z,1.27
2023-03-28T00:06:11.587Z,1.27
2023-03-28T00:08:40.507Z,1.40
2023-03-28T00:11:15.676Z,1.10
2023-03-28T00:13:43.875Z,1.20
2023-03-28T00:16:13.757Z,1.37
2023-03-28T00:18:42.836Z,1.40
2023-03-28T00:21:23.522Z,1.30
2023-03-28T00:23:53.595Z,1.57
2023-03-28T00:26:26.983Z,1.33
2023-03-28T00:28:56.186Z,1.17
2023-03-28T00:31:26.179Z,1.20
2023-03-28T00:33:54.394Z,1.10
2023-03-28T00:36:26.813Z,1.10
2023-03-28T00:38:55.326Z,1.10
2023-03-28T00:41:31.313Z,1.37
2023-03-28T00:44:00.781Z,1.20
2023-03-28T00:46:33.560Z,1.03
2023-03-28T00:49:04.850Z,1.13
2023-03-28T00:51:38.006Z,1.10
2023-03-28T00:54:09.080Z,1.10
2023-03-28T00:56:39.854Z,1.10
2023-03-28T00:59:11.597Z,1.20
2023-03-28T01:01:40.083Z,1.03
2023-03-28T01:04:10.454Z,0.90
2023-03-28T01:06:45.437Z,1.00
2023-03-28T01:09:18.232Z,0.90
2023-03-28T01:11:53.430Z,0.87
2023-03-28T01:14:24.439Z,1.10
2023-03-28T01:17:02.529Z,1.07
2023-03-28T01:19:45.632Z,1.27
2023-03-28T01:22:56.231Z,1.30
2023-03-28T01:26:07.499Z,1.07
2023-03-28T01:29:02.239Z,1.13
2023-03-28T01:32:05.858Z,1.20
2023-03-28T01:35:09.119Z,1.10
2023-03-28T01:37:44.742Z,1.20
2023-03-28T01:40:26.041Z,1.50
2023-03-28T01:43:14.397Z,1.20
2023-03-28T01:45:49.504Z,1.10
2023-03-28T01:48:25.579Z,1.20
2023-03-28T01:51:00.020Z,1.33
2023-03-28T01:53:34.017Z,1.20
2023-03-28T01:56:05.964Z,1.40
2023-03-28T01:58:42.289Z,1.20
2023-03-28T02:01:23.155Z,1.10
2023-03-28T02:03:56.386Z,1.50
2023-03-28T02:06:47.089Z,1.20
2023-03-28T02:09:25.057Z,1.30
2023-03-28T02:12:21.644Z,1.33
2023-03-28T02:14:59.386Z,1.30
2023-03-28T02:17:39.561Z,1.00
2023-03-28T02:20:19.513Z,1.40
2023-03-28T02:23:15.154Z,1.33
2023-03-28T02:26:03.450Z,1.50
2023-03-28T02:28:55.774Z,1.20
2023-03-28T02:31:51.447Z,1.53
2023-03-28T02:34:19.935Z,1.10
2023-03-28T02:36:58.676Z,1.00
2023-03-28T02:39:46.674Z,1.40
2023-03-28T02:42:44.532Z,1.10
2023-03-28T02:45:38.313Z,1.37
2023-03-28T02:48:19.725Z,1.47
2023-03-28T02:51:00.922Z,1.20
2023-03-28T02:53:37.991Z,1.40
2023-03-28T02:56:12.066Z,1.40
2023-03-28T02:59:03.953Z,1.37
2023-03-28T03:01:34.201Z,1.40
2023-03-28T03:04:02.568Z,1.20
2023-03-28T03:06:30.893Z,1.40
2023-03-28T03:08:59.199Z,1.40
2023-03-28T03:11:28.920Z,1.10
2023-03-28T03:13:57.550Z,1.20
2023-03-28T03:16:29.355Z,1.60
2023-03-28T03:18:59.126Z,1.40
2023-03-28T03:21:27.770Z,1.43
2023-03-28T03:23:56.029Z,1.97
2023-03-28T03:26:24.695Z,1.40
2023-03-28T03:28:57.454Z,1.60
2023-03-28T03:31:30.223Z,1.30
2023-03-28T03:34:18.469Z,1.77
2023-03-28T03:36:53.194Z,1.40
2023-03-28T03:39:21.654Z,2.07
2023-03-28T03:41:49.995Z,2.57
2023-03-28T03:44:18.276Z,2.20
2023-03-28T03:46:48.273Z,2.30
2023-03-28T03:49:16.649Z,2.80
2023-03-28T03:51:45.173Z,3.50
2023-03-28T03:54:17.404Z,3.07
2023-03-28T03:56:46.042Z,2.33
2023-03-28T03:59:15.702Z,2.20
2023-03-28T04:01:44.499Z,2.33
2023-03-28T04:04:22.996Z,2.50
2023-03-28T04:07:13.032Z,2.57
2023-03-28T04:09:41.659Z,2.40
2023-03-28T04:12:12.926Z,2.40
2023-03-28T04:14:52.463Z,2.70
2023-03-28T04:17:41.522Z,2.70
2023-03-28T04:20:26.834Z,2.20
2023-03-28T04:23:09.800Z,1.90
2023-03-28T04:25:41.965Z,2.67
2023-03-28T04:28:18.543Z,2.20
2023-03-28T04:31:07.478Z,2.40
2023-03-28T04:33:56.183Z,2.70
2023-03-28T04:36:27.191Z,2.50
2023-03-28T04:39:03.739Z,2.30
2023-03-28T04:41:55.668Z,2.90
2023-03-28T04:44:31.437Z,2.33
2023-03-28T04:47:04.293Z,2.53
2023-03-28T04:49:33.343Z,3.33
2023-03-28T04:52:03.267Z,3.60
2023-03-28T04:54:31.642Z,3.63
2023-03-28T04:57:08.790Z,3.83
2023-03-28T04:59:42.736Z,3.77
2023-03-28T05:02:12.930Z,7.43
2023-03-28T05:04:47.506Z,5.53
2023-03-28T05:07:17.744Z,6.00
2023-03-28T05:09:45.927Z,5.30
2023-03-28T05:12:14.330Z,4.33
2023-03-28T05:15:21.181Z,4.30
2023-03-28T05:18:03.265Z,3.40
2023-03-28T05:20:34.371Z,3.83
2023-03-28T05:23:06.038Z,4.40
2023-03-28T05:25:36.648Z,5.17
2023-03-28T05:28:05.092Z,5.03
2023-03-28T05:30:35.464Z,3.40
2023-03-28T05:33:04.112Z,2.10
2023-03-28T05:35:32.683Z,2.60
2023-03-28T05:38:01.318Z,2.80
2023-03-28T05:40:31.680Z,3.40
2023-03-28T05:43:00.058Z,3.10
2023-03-28T05:45:28.487Z,3.37
2023-03-28T05:48:13.411Z,2.80
2023-03-28T05:50:45.030Z,2.10
2023-03-28T05:53:13.508Z,2.93
2023-03-28T05:55:44.080Z,2.57
2023-03-28T05:58:12.689Z,2.60
2023-03-28T06:00:44.762Z,2.53
2023-03-28T06:03:16.957Z,2.10
2023-03-28T06:05:46.900Z,1.60
2023-03-28T06:08:21.522Z,1.70
2023-03-28T06:10:51.268Z,1.73
2023-03-28T06:13:32.228Z,1.30
2023-03-28T06:16:02.403Z,1.13
2023-03-28T06:18:33.671Z,1.40
2023-03-28T06:21:02.442Z,1.40
2023-03-28T06:23:32.754Z,1.00
2023-03-28T06:26:03.570Z,1.17
2023-03-28T06:28:39.160Z,1.50
2023-03-28T06:31:20.937Z,1.00
2023-03-28T06:33:50.102Z,1.00
2023-03-28T06:36:21.139Z,1.20
2023-03-28T06:38:50.440Z,1.10
2023-03-28T06:41:20.509Z,1.30
2023-03-28T06:43:48.763Z,1.10
2023-03-28T06:46:35.509Z,1.30
2023-03-28T06:49:04.044Z,1.13
2023-03-28T06:51:51.716Z,3.50
2023-03-28T06:54:20.195Z,1.37
2023-03-28T06:56:50.250Z,1.10
2023-03-28T06:59:18.548Z,1.10
2023-03-28T07:01:52.077Z,1.40
2023-03-28T07:04:26.644Z,1.07
2023-03-28T07:06:55.511Z,0.97
2023-03-28T07:09:23.792Z,0.60
2023-03-28T07:11:59.819Z,0.70
2023-03-28T07:14:28.299Z,0.60
2023-03-28T07:16:57.425Z,0.80
2023-03-28T07:19:27.522Z,0.60
2023-03-28T07:21:55.995Z,0.73
2023-03-28T07:24:25.138Z,0.80
2023-03-28T07:27:15.377Z,0.50
2023-03-28T07:29:46.762Z,0.80
2023-03-28T07:32:15.828Z,0.60
2023-03-28T07:34:46.466Z,0.60
2023-03-28T07:37:20.710Z,0.57
2023-03-28T07:39:57.667Z,0.50
2023-03-28T07:42:29.300Z,0.70
2023-03-28T07:44:57.493Z,0.80
2023-03-28T07:47:25.744Z,0.60
2023-03-28T07:49:54.483Z,0.63
2023-03-28T07:52:23.644Z,0.40
2023-03-28T07:54:52.118Z,0.53
2023-03-28T07:57:20.370Z,0.60
2023-03-28T08:00:13.364Z,0.55
2023-03-28T08:02:44.608Z,0.73
2023-03-28T08:05:14.392Z,0.82
2023-03-28T08:07:46.186Z,0.80
2023-03-28T08:10:15.608Z,0.75
2023-03-28T08:12:43.977Z,0.68
2023-03-28T08:15:14.038Z,0.60
2023-03-28T08:17:42.380Z,0.65
2023-03-28T08:20:12.232Z,0.60
2023-03-28T08:22:57.599Z,0.57
2023-03-28T08:25:46.446Z,0.73
2023-03-28T08:28:17.582Z,0.68
2023-03-28T08:30:47.652Z,0.70
2023-03-28T08:33:16.088Z,0.60
2023-03-28T08:35:44.358Z,0.70
2023-03-28T08:38:20.017Z,0.60
2023-03-28T08:40:59.640Z,0.60
2023-03-28T08:43:49.047Z,0.60
2023-03-28T08:46:23.265Z,0.50
2023-03-28T08:48:54.134Z,0.85
2023-03-28T08:51:27.993Z,0.70
2023-03-28T08:54:08.505Z,0.90
2023-03-28T08:56:44.098Z,0.60
2023-03-28T08:59:16.815Z,1.08
2023-03-28T09:01:47.419Z,1.15
2023-03-28T09:04:25.958Z,0.60
2023-03-28T09:07:15.129Z,0.68
2023-03-28T09:09:54.723Z,0.70
2023-03-28T09:12:45.033Z,0.60
2023-03-28T09:15:48.769Z,0.57
2023-03-28T09:18:40.110Z,0.60
2023-03-28T09:21:18.245Z,0.50
2023-03-28T09:24:04.008Z,0.52
2023-03-28T09:26:37.031Z,0.50
2023-03-28T09:29:15.375Z,0.70
2023-03-28T09:31:48.003Z,0.60
2023-03-28T09:34:23.140Z,0.63
2023-03-28T09:36:57.474Z,1.58
2023-03-28T09:39:35.152Z,1.70
2023-03-28T09:42:09.447Z,0.70
2023-03-28T09:45:04.785Z,0.60
2023-03-28T09:47:51.718Z,0.60
2023-03-28T09:50:24.760Z,0.80
2023-03-28T09:52:58.845Z,0.70
2023-03-28T09:55:29.868Z,0.90
2023-03-28T09:58:07.818Z,0.70
2023-03-28T10:00:56.602Z,0.63
2023-03-28T10:03:54.283Z,0.60
2023-03-28T10:06:32.711Z,0.60
2023-03-28T10:09:21.084Z,0.70
2023-03-28T10:12:02.269Z,0.70
2023-03-28T10:14:36.987Z,0.57
2023-03-28T10:17:14.718Z,0.70
2023-03-28T10:19:50.042Z,0.70
2023-03-28T10:22:26.500Z,0.60
2023-03-28T10:24:57.128Z,0.70
2023-03-28T10:27:28.834Z,3.47
2023-03-28T10:29:58.878Z,2.97
2023-03-28T10:32:33.203Z,0.65
2023-03-28T10:35:26.614Z,0.73
2023-03-28T10:38:27.892Z,0.80
2023-03-28T10:41:24.483Z,1.02
2023-03-28T10:44:19.889Z,0.95
2023-03-28T10:46:54.663Z,0.60
2023-03-28T10:49:28.088Z,0.60
2023-03-28T10:52:14.436Z,0.70
2023-03-28T10:54:56.546Z,0.80
2023-03-28T10:57:43.123Z,0.80
2023-03-28T11:00:19.008Z,0.77
2023-03-28T11:03:07.220Z,0.70
2023-03-28T11:06:08.036Z,0.82
2023-03-28T11:08:54.570Z,1.10
2023-03-28T11:11:39.333Z,0.90
2023-03-28T11:14:19.107Z,0.65
2023-03-28T11:16:55.537Z,0.60
2023-03-28T11:20:07.456Z,1.00
2023-03-28T11:23:04.615Z,1.23
2023-03-28T11:25:47.944Z,0.90
2023-03-28T11:29:13.118Z,0.60
2023-03-28T11:31:46.895Z,0.80
2023-03-28T11:34:23.719Z,0.75
2023-03-28T11:36:59.928Z,0.80
2023-03-28T11:39:36.118Z,0.85
2023-03-28T11:42:11.691Z,0.57
2023-03-28T11:44:52.633Z,0.90
2023-03-28T11:47:26.759Z,0.57
2023-03-28T11:50:08.334Z,1.15
2023-03-28T11:53:17.318Z,2.05
2023-03-28T11:56:02.860Z,0.73
2023-03-28T11:58:57.302Z,0.90
2023-03-28T12:01:31.489Z,0.82
2023-03-28T12:04:08.931Z,0.70
2023-03-28T12:06:52.147Z,1.05
2023-03-28T12:09:32.070Z,0.88
2023-03-28T12:12:07.763Z,0.65
2023-03-28T12:14:44.985Z,0.73
2023-03-28T12:17:32.350Z,0.85
2023-03-28T12:20:01.008Z,0.50
2023-03-28T12:22:37.902Z,0.60
2023-03-28T12:25:13.221Z,0.80
2023-03-28T12:27:57.141Z,0.90
2023-03-28T12:30:35.870Z,0.77
2023-03-28T12:33:17.371Z,0.60
2023-03-28T12:36:06.078Z,0.73
2023-03-28T12:38:42.706Z,0.80
2023-03-28T12:41:32.587Z,0.65
2023-03-28T12:44:05.426Z,1.15
2023-03-28T12:46:46.403Z,1.35
2023-03-28T12:49:22.872Z,0.50
2023-03-28T12:51:55.172Z,0.70
2023-03-28T12:54:27.956Z,0.70
2023-03-28T12:57:12.093Z,0.68
2023-03-28T13:00:15.257Z,0.70
2023-03-28T13:03:18.687Z,0.90
2023-03-28T13:05:58.073Z,0.80
2023-03-28T13:08:35.739Z,1.00
2023-03-28T13:11:14.849Z,0.80
2023-03-28T13:13:52.174Z,0.68
2023-03-28T13:16:26.776Z,0.70
2023-03-28T13:19:18.615Z,0.80
2023-03-28T13:21:52.491Z,1.00
2023-03-28T13:24:32.478Z,1.13
2023-03-28T13:27:04.106Z,0.90
2023-03-28T13:29:46.877Z,0.75
2023-03-28T13:32:17.371Z,1.00
2023-03-28T13:34:50.198Z,0.93
2023-03-28T13:37:23.424Z,0.80
2023-03-28T13:39:53.535Z,0.73
2023-03-28T13:42:31.279Z,1.00
2023-03-28T13:45:02.643Z,1.00
2023-03-28T13:47:36.105Z,0.80
2023-03-28T13:50:11.959Z,0.82
2023-03-28T13:52:41.673Z,0.80
2023-03-28T13:55:20.790Z,0.80
2023-03-28T13:57:49.614Z,0.60
2023-03-28T14:00:21.660Z,0.68
2023-03-28T14:02:51.667Z,0.85
2023-03-28T14:05:23.224Z,0.80
2023-03-28T14:07:55.431Z,0.65
2023-03-28T14:10:30.114Z,0.88
2023-03-28T14:13:02.899Z,0.80
2023-03-28T14:15:34.188Z,0.80
2023-03-28T14:18:04.191Z,1.00
2023-03-28T14:20:34.620Z,1.20
2023-03-28T14:23:06.332Z,0.70
2023-03-28T14:25:34.725Z,0.77
2023-03-28T14:28:08.824Z,0.85
2023-03-28T14:30:42.798Z,1.00
2023-03-28T14:33:21.450Z,0.95
2023-03-28T14:36:01.771Z,1.35
2023-03-28T14:38:35.282Z,1.00
2023-03-28T14:41:09.741Z,0.90
2023-03-28T14:43:38.143Z,0.73
2023-03-28T14:46:09.348Z,1.00
2023-03-28T14:48:39.319Z,0.80
2023-03-28T14:51:08.211Z,0.83
2023-03-28T14:53:42.649Z,0.80
2023-03-28T14:56:16.473Z,0.80
2023-03-28T14:58:48.525Z,1.20
2023-03-28T15:01:23.037Z,0.90
2023-03-28T15:03:55.195Z,0.80
2023-03-28T15:06:24.518Z,0.80
2023-03-28T15:08:56.442Z,0.80
2023-03-28T15:11:29.294Z,0.80
2023-03-28T15:14:03.296Z,0.87
2023-03-28T15:16:33.633Z,1.07
2023-03-28T15:19:07.177Z,0.80
2023-03-28T15:21:36.892Z,0.73
2023-03-28T15:24:11.403Z,0.80
2023-03-28T15:26:43.237Z,0.93
2023-03-28T15:29:16.568Z,1.10
2023-03-28T15:31:45.180Z,0.83
2023-03-28T15:34:21.678Z,0.80
2023-03-28T15:36:52.705Z,0.97
2023-03-28T15:39:25.605Z,0.97
2023-03-28T15:41:56.276Z,1.00
2023-03-28T15:44:28.599Z,0.93
2023-03-28T15:46:59.752Z,1.07
2023-03-28T15:49:28.330Z,0.80
2023-03-28T15:52:00.983Z,1.10
2023-03-28T15:54:32.236Z,1.10
2023-03-28T15:57:03.556Z,0.90
2023-03-28T15:59:35.479Z,1.07
2023-03-28T16:02:32.895Z,1.10
2023-03-28T16:05:03.352Z,0.97
2023-03-28T16:07:37.143Z,0.90
2023-03-28T16:10:07.750Z,1.07
2023-03-28T16:12:51.184Z,1.00
2023-03-28T16:15:38.361Z,0.93
2023-03-28T16:18:18.917Z,1.10
2023-03-28T16:20:53.514Z,1.23
2023-03-28T16:23:21.766Z,1.00
2023-03-28T16:25:51.363Z,0.97
2023-03-28T16:28:19.768Z,1.10
2023-03-28T16:30:48.399Z,1.00
2023-03-28T16:33:17.190Z,1.10
2023-03-28T16:35:45.482Z,1.10
2023-03-28T16:38:13.822Z,1.00
2023-03-28T16:40:42.274Z,1.13
2023-03-28T16:43:13.269Z,1.00
2023-03-28T16:45:41.652Z,1.03
2023-03-28T16:48:10.227Z,1.30
2023-03-28T16:50:38.754Z,1.33
2023-03-28T16:53:07.061Z,1.00
2023-03-28T16:55:35.341Z,1.47
2023-03-28T16:58:03.663Z,1.23
2023-03-28T17:00:42.750Z,1.10
2023-03-28T17:03:11.917Z,1.10
2023-03-28T17:05:40.716Z,1.13
2023-03-28T17:08:09.287Z,1.00
2023-03-28T17:10:40.499Z,1.20
2023-03-28T17:13:09.588Z,1.20
2023-03-28T17:15:39.568Z,1.00
2023-03-28T17:18:11.021Z,1.27
2023-03-28T17:20:40.131Z,1.27
2023-03-28T17:23:09.188Z,1.33
2023-03-28T17:25:48.108Z,1.50
2023-03-28T17:28:20.788Z,1.40
2023-03-28T17:30:50.574Z,1.07
2023-03-28T17:33:21.244Z,1.03
2023-03-28T17:35:51.181Z,1.23
2023-03-28T17:38:21.746Z,1.40
2023-03-28T17:40:51.943Z,1.43
2023-03-28T17:43:21.698Z,4.50
2023-03-28T17:45:55.249Z,1.37
2023-03-28T17:48:26.345Z,1.20
2023-03-28T17:50:56.742Z,1.23
2023-03-28T17:53:26.386Z,1.00
2023-03-28T17:55:57.728Z,1.30
2023-03-28T17:58:26.442Z,1.60
2023-03-28T18:00:59.073Z,1.33
2023-03-28T18:03:31.887Z,1.20
2023-03-28T18:06:32.310Z,1.27
2023-03-28T18:09:02.719Z,2.70
2023-03-28T18:11:32.312Z,1.23
2023-03-28T18:14:01.723Z,1.30
2023-03-28T18:16:31.420Z,1.40
2023-03-28T18:19:07.296Z,1.33
2023-03-28T18:21:37.557Z,1.43
2023-03-28T18:24:08.597Z,1.30
2023-03-28T18:26:38.517Z,1.27
2023-03-28T18:29:15.184Z,1.40
2023-03-28T18:31:44.699Z,1.40
2023-03-28T18:34:16.480Z,1.30
2023-03-28T18:36:50.867Z,1.50
2023-03-28T18:39:20.671Z,1.20
2023-03-28T18:41:50.496Z,1.20
2023-03-28T18:44:20.378Z,1.30
2023-03-28T18:46:55.406Z,1.17
2023-03-28T18:49:27.683Z,1.60
2023-03-28T18:52:04.665Z,1.57
2023-03-28T18:54:36.241Z,1.37
2023-03-28T18:57:07.942Z,1.30
2023-03-28T18:59:37.404Z,1.80
2023-03-28T19:02:08.597Z,1.50
2023-03-28T19:04:45.283Z,1.53
2023-03-28T19:07:16.250Z,2.00
2023-03-28T19:09:46.354Z,2.03
2023-03-28T19:12:20.410Z,1.70
2023-03-28T19:14:51.842Z,1.73
2023-03-28T19:17:21.229Z,2.10
2023-03-28T19:19:52.647Z,1.80
2023-03-28T19:22:28.063Z,1.60
2023-03-28T19:25:02.166Z,1.80
2023-03-28T19:27:32.211Z,1.60
2023-03-28T19:30:02.345Z,1.77
2023-03-28T19:32:33.582Z,2.80
2023-03-28T19:35:05.551Z,2.00
2023-03-28T19:37:34.846Z,1.60
2023-03-28T19:40:08.930Z,1.60
2023-03-28T19:42:38.794Z,1.70
2023-03-28T19:45:09.603Z,1.67
2023-03-28T19:47:39.556Z,1.50
2023-03-28T19:50:12.417Z,1.60
2023-03-28T19:52:43.445Z,2.70
2023-03-28T19:55:13.349Z,4.20
2023-03-28T19:57:45.488Z,3.90
2023-03-28T20:00:17.737Z,2.00
2023-03-28T20:02:48.015Z,2.73
2023-03-28T20:05:19.392Z,2.70
2023-03-28T20:07:50.027Z,2.37
2023-03-28T20:10:20.124Z,2.47
2023-03-28T20:12:53.502Z,1.97
2023-03-28T20:15:23.415Z,2.33
2023-03-28T20:17:52.791Z,2.33
2023-03-28T20:20:26.127Z,2.30
2023-03-28T20:22:58.816Z,2.07
2023-03-28T20:25:29.319Z,2.03
2023-03-28T20:27:59.633Z,2.80
2023-03-28T20:30:28.311Z,2.20
2023-03-28T20:32:59.350Z,1.77
2023-03-28T20:35:30.408Z,1.93
2023-03-28T20:37:59.487Z,1.50
2023-03-28T20:40:28.689Z,1.60
2023-03-28T20:42:57.596Z,1.50
2023-03-28T20:45:26.493Z,1.60
2023-03-28T20:47:56.969Z,1.40
2023-03-28T20:50:33.828Z,1.67
2023-03-28T20:53:05.707Z,1.53
2023-03-28T20:55:35.354Z,1.30
2023-03-28T20:58:03.532Z,1.40
2023-03-28T21:00:33.817Z,1.43
2023-03-28T21:03:03.493Z,1.30
2023-03-28T21:05:33.277Z,1.30
2023-03-28T21:08:02.301Z,1.60
2023-03-28T21:10:33.324Z,1.53
2023-03-28T21:13:01.499Z,1.30
2023-03-28T21:15:30.670Z,1.50
2023-03-28T21:17:59.093Z,1.40
2023-03-28T21:20:27.447Z,1.40
2023-03-28T21:22:55.855Z,1.23
2023-03-28T21:25:24.038Z,1.60
2023-03-28T21:27:53.551Z,1.40
2023-03-28T21:30:21.697Z,1.40
2023-03-28T21:32:50.013Z,1.57
2023-03-28T21:35:19.243Z,1.27
2023-03-28T21:37:47.381Z,1.40
2023-03-28T21:40:16.019Z,1.30
2023-03-28T21:42:44.542Z,1.67
2023-03-28T21:45:14.170Z,1.47
2023-03-28T21:47:42.802Z,1.40
2023-03-28T21:50:14.458Z,1.20
2023-03-28T21:52:43.176Z,1.67
2023-03-28T21:55:11.311Z,1.40
2023-03-28T21:57:39.457Z,1.30
2023-03-28T22:00:14.926Z,1.40
2023-03-28T22:02:45.725Z,1.20
2023-03-28T22:05:26.696Z,1.70
2023-03-28T22:07:57.622Z,1.40
2023-03-28T22:10:27.188Z,1.47
2023-03-28T22:12:58.886Z,1.30
2023-03-28T22:15:27.513Z,1.53
2023-03-28T22:17:58.493Z,1.20
2023-03-28T22:20:28.249Z,1.23
2023-03-28T22:23:00.523Z,1.23
2023-03-28T22:25:34.673Z,1.43
2023-03-28T22:28:04.112Z,1.30
2023-03-28T22:30:32.423Z,1.30
2023-03-28T22:33:02.545Z,1.43
2023-03-28T22:35:31.302Z,1.30
2023-03-28T22:37:59.425Z,1.30
2023-03-28T22:40:27.606Z,1.50
2023-03-28T22:42:56.042Z,1.77
2023-03-28T22:45:25.165Z,2.07
2023-03-28T22:47:53.928Z,1.90
2023-03-28T22:50:24.893Z,2.07
2023-03-28T22:52:53.259Z,1.97
2023-03-28T22:55:23.067Z,2.20
2023-03-28T22:57:52.523Z,2.33
2023-03-28T23:00:23.132Z,1.77
2023-03-28T23:02:52.055Z,2.10
2023-03-28T23:05:21.057Z,2.30
2023-03-28T23:07:50.756Z,2.00
2023-03-28T23:10:20.099Z,2.03
2023-03-28T23:12:49.076Z,1.70
2023-03-28T23:15:17.820Z,2.13
2023-03-28T23:17:45.988Z,2.50
2023-03-28T23:20:17.159Z,2.00
2023-03-28T23:22:47.339Z,2.07
2023-03-28T23:25:18.748Z,2.07
2023-03-28T23:27:47.636Z,2.00
2023-03-28T23:30:17.595Z,2.00
2023-03-28T23:32:45.816Z,1.70
2023-03-28T23:35:14.057Z,1.93
2023-03-28T23:37:42.265Z,1.90
2023-03-28T23:40:15.000Z,1.97
2023-03-28T23:42:45.357Z,2.10
2023-03-28T23:45:15.772Z,1.53
2023-03-28T23:47:44.540Z,2.20
2023-03-28T23:50:13.505Z,2.00
2023-03-28T23:52:41.799Z,2.37
2023-03-28T23:55:10.532Z,1.90
2023-03-28T23:57:38.776Z,1.93
